Terminal Aerodrome Forecast
Issued by NWS Sioux Falls, SD

Current Version | Previous Version | Text Only | Print | Product List | Glossary On
Versions: 1 2 3 4 5 6 7 8 9 10 11 12 13 14 15
000
FTUS43 KFSD 021134
TAFHON
TAF
KHON 021134Z 0212/0312 20005KT P6SM SKC
     FM021500 24010KT P6SM SKC
     FM022300 17007KT P6SM SKC
     FM030600 16010KT P6SM SCT080=

USA.gov is the U.S. government's official web portal to all federal, state and local government web resources and services.